Terminal Aerodrome Forecast
Issued by NWS

Home | Current Version | Previous Version | Text Only | Print | Product List | Glossary On
Versions: 1 2 3 4 5 6 7 8 9 10 11 12 13
000
FTAK31 PAJN 270500
TAFASI
TAF
PASI 270538Z 2706/2806 12010KT 6SM -RA BKN035 OVC050
     FM271000 14010G18KT P6SM -SHRA VCTS BKN040CB OVC060
     FM272200 14008KT 6SM -SHRA BKN040 OVC070
     FM280300 VRB06KT P6SM VCSH BKN025 OVC060=

USA.gov is the U.S. government's official web portal to all federal, state and local government web resources and services.